createdAt,value
2019-02-19T00:00:42.726Z,1010.30
2019-02-19T00:01:42.705Z,1010.32
2019-02-19T00:02:42.696Z,1010.34
2019-02-19T00:03:42.680Z,1010.30
2019-02-19T00:04:42.702Z,1010.31
2019-02-19T00:05:42.691Z,1010.32
2019-02-19T00:06:42.646Z,1010.33
2019-02-19T00:07:42.645Z,1010.38
2019-02-19T00:08:42.645Z,1010.34
2019-02-19T00:09:42.634Z,1010.34
2019-02-19T00:10:42.631Z,1010.37
2019-02-19T00:11:42.633Z,1010.33
2019-02-19T00:12:42.586Z,1010.34
2019-02-19T00:13:42.578Z,1010.37
2019-02-19T00:14:42.561Z,1010.38
2019-02-19T00:15:42.579Z,1010.37
2019-02-19T00:16:42.542Z,1010.36
2019-02-19T00:17:42.535Z,1010.38
2019-02-19T00:18:42.519Z,1010.38
2019-02-19T00:19:42.511Z,1010.42
2019-02-19T00:20:42.519Z,1010.39
2019-02-19T00:21:42.488Z,1010.37
2019-02-19T00:22:42.480Z,1010.39
2019-02-19T00:23:42.465Z,1010.34
2019-02-19T00:24:42.491Z,1010.39
2019-02-19T00:25:42.488Z,1010.37
2019-02-19T00:26:42.435Z,1010.34
2019-02-19T00:27:42.422Z,1010.36
2019-02-19T00:28:42.414Z,1010.35
2019-02-19T00:29:42.452Z,1010.35
2019-02-19T00:30:42.441Z,1010.33
2019-02-19T00:31:42.442Z,1010.31
2019-02-19T00:32:42.372Z,1010.35
2019-02-19T00:33:42.367Z,1010.30
2019-02-19T00:34:42.351Z,1010.34
2019-02-19T00:35:42.342Z,1010.34
2019-02-19T00:36:42.372Z,1010.37
2019-02-19T00:37:42.320Z,1010.37
2019-02-19T00:38:42.307Z,1010.31
2019-02-19T00:39:42.293Z,1010.37
2019-02-19T00:40:42.325Z,1010.34
2019-02-19T00:41:42.306Z,1010.39
2019-02-19T00:42:42.271Z,1010.32
2019-02-19T00:43:42.258Z,1010.35
2019-02-19T00:44:42.239Z,1010.30
2019-02-19T00:45:42.239Z,1010.33
2019-02-19T00:46:42.221Z,1010.31
2019-02-19T00:47:42.251Z,1010.32
2019-02-19T00:48:42.202Z,1010.31
2019-02-19T00:49:42.189Z,1010.34
2019-02-19T00:50:42.195Z,1010.33
2019-02-19T00:51:42.166Z,1010.30
2019-02-19T00:52:42.205Z,1010.31
2019-02-19T00:53:42.158Z,1010.34
2019-02-19T00:54:42.138Z,1010.25
2019-02-19T00:55:42.123Z,1010.30
2019-02-19T00:56:42.112Z,1010.29
2019-02-19T00:57:42.117Z,1010.30
2019-02-19T00:58:42.129Z,1010.32
2019-02-19T00:59:42.089Z,1010.34
2019-02-19T01:00:42.093Z,1010.26
2019-02-19T01:01:42.058Z,1010.28
2019-02-19T01:02:42.051Z,1010.25
2019-02-19T01:03:42.099Z,1010.23
2019-02-19T01:04:42.029Z,1010.21
2019-02-19T01:05:42.049Z,1010.26
2019-02-19T01:06:42.006Z,1010.20
2019-02-19T01:07:42.030Z,1010.20
2019-02-19T01:08:41.983Z,1010.19
2019-02-19T01:09:42.003Z,1010.13
2019-02-19T01:10:41.969Z,1010.17
2019-02-19T01:11:41.954Z,1010.14
2019-02-19T01:12:41.974Z,1010.15
2019-02-19T01:13:41.939Z,1010.14
2019-02-19T01:14:41.982Z,1010.16
2019-02-19T01:15:41.928Z,1010.16
2019-02-19T01:16:41.915Z,1010.18
2019-02-19T01:17:41.888Z,1010.13
2019-02-19T01:18:41.879Z,1010.17
2019-02-19T01:19:41.916Z,1010.20
2019-02-19T01:20:41.905Z,1010.20
2019-02-19T01:21:41.857Z,1010.23
2019-02-19T01:22:41.845Z,1010.18
2019-02-19T01:23:41.845Z,1010.21
2019-02-19T01:24:41.820Z,1010.21
2019-02-19T01:25:41.867Z,1010.26
2019-02-19T01:26:41.802Z,1010.27
2019-02-19T01:27:41.790Z,1010.25
2019-02-19T01:28:41.790Z,1010.19
2019-02-19T01:29:41.761Z,1010.27
2019-02-19T01:30:41.796Z,1010.27
2019-02-19T01:31:41.755Z,1010.32
2019-02-19T01:32:41.731Z,1010.27
2019-02-19T01:33:41.721Z,1010.30
2019-02-19T01:34:41.736Z,1010.33
2019-02-19T01:35:41.699Z,1010.32
2019-02-19T01:36:41.724Z,1010.35
2019-02-19T01:37:41.685Z,1010.35
2019-02-19T01:38:41.677Z,1010.34
2019-02-19T01:39:41.666Z,1010.32
2019-02-19T01:40:41.654Z,1010.35
2019-02-19T01:41:41.667Z,1010.31
2019-02-19T01:42:41.637Z,1010.33
2019-02-19T01:43:41.612Z,1010.39
2019-02-19T01:44:41.602Z,1010.40
2019-02-19T01:45:41.602Z,1010.41
2019-02-19T01:46:41.582Z,1010.36
2019-02-19T01:47:41.601Z,1010.31
2019-02-19T01:48:41.584Z,1010.32
2019-02-19T01:49:41.554Z,1010.32
2019-02-19T01:50:41.545Z,1010.30
2019-02-19T01:51:41.579Z,1010.39
2019-02-19T01:52:41.524Z,1010.34
2019-02-19T01:53:41.510Z,1010.35
2019-02-19T01:54:41.501Z,1010.27
2019-02-19T01:55:41.486Z,1010.29
2019-02-19T01:56:41.479Z,1010.29
2019-02-19T01:57:41.502Z,1010.27
2019-02-19T01:58:41.461Z,1010.30
2019-02-19T01:59:41.466Z,1010.30
2019-02-19T02:00:41.434Z,1010.30
2019-02-19T02:01:41.452Z,1010.29
2019-02-19T02:02:41.441Z,1010.30
2019-02-19T02:03:41.403Z,1010.27
2019-02-19T02:04:41.400Z,1010.28
2019-02-19T02:05:41.382Z,1010.28
2019-02-19T02:06:41.376Z,1010.27
2019-02-19T02:07:41.395Z,1010.26
2019-02-19T02:08:41.355Z,1010.28
2019-02-19T02:09:41.352Z,1010.28
2019-02-19T02:10:41.339Z,1010.29
2019-02-19T02:11:41.340Z,1010.27
2019-02-19T02:12:41.305Z,1010.25
2019-02-19T02:13:41.370Z,1010.22
2019-02-19T02:14:41.312Z,1010.23
2019-02-19T02:15:42.915Z,1010.27
2019-02-19T02:16:41.266Z,1010.32
2019-02-19T02:17:41.251Z,1010.33
2019-02-19T02:18:41.269Z,1010.30
2019-02-19T02:19:41.238Z,1010.35
2019-02-19T02:20:41.221Z,1010.30
2019-02-19T02:21:41.219Z,1010.33
2019-02-19T02:22:41.200Z,1010.34
2019-02-19T02:23:41.188Z,1010.36
2019-02-19T02:24:41.209Z,1010.35
2019-02-19T02:25:41.169Z,1010.36
2019-02-19T02:26:41.163Z,1010.36
2019-02-19T02:27:41.156Z,1010.36
2019-02-19T02:28:41.138Z,1010.35
2019-02-19T02:29:41.165Z,1010.37
2019-02-19T02:30:41.115Z,1010.38
2019-02-19T02:31:41.111Z,1010.41
2019-02-19T02:32:41.113Z,1010.48
2019-02-19T02:33:41.082Z,1010.48
2019-02-19T02:34:41.100Z,1010.45
2019-02-19T02:35:41.092Z,1010.40
2019-02-19T02:36:41.055Z,1010.44
2019-02-19T02:37:41.083Z,1010.44
2019-02-19T02:38:41.029Z,1010.41
2019-02-19T02:39:41.029Z,1010.45
2019-02-19T02:40:41.037Z,1010.42
2019-02-19T02:41:41.006Z,1010.42
2019-02-19T02:42:40.989Z,1010.41
2019-02-19T02:43:41.017Z,1010.42
2019-02-19T02:44:40.965Z,1010.43
2019-02-19T02:45:40.991Z,1010.51
2019-02-19T02:46:40.944Z,1010.48
2019-02-19T02:47:40.949Z,1010.46
2019-02-19T02:48:40.931Z,1010.47
2019-02-19T02:49:40.946Z,1010.47
2019-02-19T02:50:40.906Z,1010.41
2019-02-19T02:51:40.922Z,1010.44
2019-02-19T02:52:40.889Z,1010.47
2019-02-19T02:53:40.881Z,1010.44
2019-02-19T02:54:40.871Z,1010.48
2019-02-19T02:55:40.852Z,1010.47
2019-02-19T02:56:40.864Z,1010.44
2019-02-19T02:57:40.861Z,1010.48
2019-02-19T02:58:40.819Z,1010.48
2019-02-19T02:59:40.810Z,1010.50
2019-02-19T03:00:40.807Z,1010.43
2019-02-19T03:01:40.811Z,1010.48
2019-02-19T03:02:40.796Z,1010.50
2019-02-19T03:03:40.787Z,1010.49
2019-02-19T03:04:40.792Z,1010.47
2019-02-19T03:05:40.781Z,1010.47
2019-02-19T03:06:40.771Z,1010.43
2019-02-19T03:07:40.748Z,1010.48
2019-02-19T03:08:40.710Z,1010.49
2019-02-19T03:09:40.711Z,1010.43
2019-02-19T03:10:40.700Z,1010.42
2019-02-19T03:11:40.722Z,1010.43
2019-02-19T03:12:40.667Z,1010.40
2019-02-19T03:13:40.671Z,1010.40
2019-02-19T03:14:40.649Z,1010.45
2019-02-19T03:15:40.635Z,1010.49
2019-02-19T03:16:40.626Z,1010.44
2019-02-19T03:17:40.645Z,1010.48
2019-02-19T03:18:40.603Z,1010.54
2019-02-19T03:19:40.595Z,1010.49
2019-02-19T03:20:40.599Z,1010.49
2019-02-19T03:21:40.573Z,1010.53
2019-02-19T03:22:40.566Z,1010.49
2019-02-19T03:23:40.582Z,1010.46
2019-02-19T03:24:40.543Z,1010.45
2019-02-19T03:25:40.540Z,1010.49
2019-02-19T03:26:40.521Z,1010.49
2019-02-19T03:27:40.507Z,1010.49
2019-02-19T03:28:40.525Z,1010.50
2019-02-19T03:29:40.492Z,1010.48
2019-02-19T03:30:40.510Z,1010.42
2019-02-19T03:31:40.466Z,1010.44
2019-02-19T03:32:40.549Z,1010.48
2019-02-19T03:33:40.487Z,1010.42
2019-02-19T03:34:40.450Z,1010.41
2019-02-19T03:35:40.429Z,1010.43
2019-02-19T03:36:40.415Z,1010.45
2019-02-19T03:37:40.415Z,1010.42
2019-02-19T03:38:40.389Z,1010.38
2019-02-19T03:39:40.425Z,1010.39
2019-02-19T03:40:40.373Z,1010.42
2019-02-19T03:41:40.363Z,1010.46
2019-02-19T03:42:40.383Z,1010.48
2019-02-19T03:43:40.346Z,1010.49
2019-02-19T03:44:40.363Z,1010.48
2019-02-19T03:45:40.314Z,1010.49
2019-02-19T03:46:40.310Z,1010.46
2019-02-19T03:47:40.306Z,1010.50
2019-02-19T03:48:40.299Z,1010.50
2019-02-19T03:49:40.334Z,1010.48
2019-02-19T03:50:40.290Z,1010.49
2019-02-19T03:51:40.255Z,1010.49
2019-02-19T03:52:40.239Z,1010.52
2019-02-19T03:53:40.241Z,1010.54
2019-02-19T03:54:40.240Z,1010.59
2019-02-19T03:55:40.248Z,1010.55
2019-02-19T03:56:40.209Z,1010.61
2019-02-19T03:57:40.189Z,1010.57
2019-02-19T03:58:40.180Z,1010.60
2019-02-19T03:59:40.171Z,1010.64
2019-02-19T04:00:40.199Z,1010.68
2019-02-19T04:01:40.146Z,1010.69
2019-02-19T04:02:40.138Z,1010.79
2019-02-19T04:03:40.128Z,1010.77
2019-02-19T04:04:40.122Z,1010.77
2019-02-19T04:05:40.111Z,1010.81
2019-02-19T04:06:40.159Z,1010.78
2019-02-19T04:07:40.081Z,1010.82
2019-02-19T04:08:40.094Z,1010.81
2019-02-19T04:09:40.092Z,1010.80
2019-02-19T04:10:40.055Z,1010.78
2019-02-19T04:11:40.078Z,1010.76
2019-02-19T04:12:40.037Z,1010.80
2019-02-19T04:13:40.023Z,1010.79
2019-02-19T04:14:40.013Z,1010.76
2019-02-19T04:15:40.004Z,1010.80
2019-02-19T04:16:40.006Z,1010.78
2019-02-19T04:17:40.004Z,1010.78
2019-02-19T04:18:40.006Z,1010.81
2019-02-19T04:19:39.957Z,1010.79
2019-02-19T04:20:39.953Z,1010.79
2019-02-19T04:21:39.942Z,1010.80
2019-02-19T04:22:39.952Z,1010.82
2019-02-19T04:23:39.912Z,1010.86
2019-02-19T04:24:39.901Z,1010.86
2019-02-19T04:25:39.891Z,1010.90
2019-02-19T04:26:39.888Z,1010.89
2019-02-19T04:27:39.927Z,1010.89
2019-02-19T04:28:39.859Z,1010.92
2019-02-19T04:29:39.849Z,1010.94
2019-02-19T04:30:39.840Z,1010.94
2019-02-19T04:31:39.826Z,1010.98
2019-02-19T04:32:39.813Z,1010.91
2019-02-19T04:33:39.835Z,1010.90
2019-02-19T04:34:39.801Z,1010.93
2019-02-19T04:35:39.783Z,1010.93
2019-02-19T04:36:39.775Z,1010.92
2019-02-19T04:37:39.773Z,1010.92
2019-02-19T04:38:39.776Z,1010.90
2019-02-19T04:39:39.759Z,1010.92
2019-02-19T04:40:39.734Z,1010.91
2019-02-19T04:41:39.722Z,1010.91
2019-02-19T04:42:39.709Z,1010.90
2019-02-19T04:43:39.732Z,1010.91
2019-02-19T04:44:39.692Z,1010.90
2019-02-19T04:45:39.676Z,1010.88
2019-02-19T04:46:39.668Z,1010.89
2019-02-19T04:47:39.662Z,1010.92
2019-02-19T04:48:39.679Z,1010.93
2019-02-19T04:49:39.639Z,1010.95
2019-02-19T04:50:39.623Z,1010.91
2019-02-19T04:51:39.620Z,1010.91
2019-02-19T04:52:39.621Z,1010.96
2019-02-19T04:53:39.614Z,1010.95
2019-02-19T04:54:39.588Z,1010.98
2019-02-19T04:55:39.571Z,1010.96
2019-02-19T04:56:39.562Z,1010.99
2019-02-19T04:57:39.562Z,1011.01
2019-02-19T04:58:39.579Z,1011.07
2019-02-19T04:59:39.523Z,1011.06
2019-02-19T05:00:39.513Z,1011.08
2019-02-19T05:01:39.507Z,1011.12
2019-02-19T05:02:39.506Z,1011.12
2019-02-19T05:03:39.509Z,1011.12
2019-02-19T05:04:39.468Z,1011.09
2019-02-19T05:05:39.537Z,1011.14
2019-02-19T05:06:39.456Z,1011.13
2019-02-19T05:07:39.438Z,1011.14
2019-02-19T05:08:39.468Z,1011.13
2019-02-19T05:09:39.416Z,1011.07
2019-02-19T05:10:39.405Z,1011.11
2019-02-19T05:11:39.394Z,1011.14
2019-02-19T05:12:39.382Z,1011.12
2019-02-19T05:13:39.399Z,1011.16
2019-02-19T05:14:39.367Z,1011.18
2019-02-19T05:15:39.374Z,1011.13
2019-02-19T05:16:41.010Z,1011.12
2019-02-19T05:17:39.331Z,1011.17
2019-02-19T05:18:39.346Z,1011.14
2019-02-19T05:19:39.306Z,1011.21
2019-02-19T05:20:39.297Z,1011.20
2019-02-19T05:21:39.285Z,1011.17
2019-02-19T05:22:39.272Z,1011.22
2019-02-19T05:23:39.265Z,1011.23
2019-02-19T05:24:39.289Z,1011.24
2019-02-19T05:25:39.260Z,1011.23
2019-02-19T05:26:39.239Z,1011.26
2019-02-19T05:27:39.233Z,1011.26
2019-02-19T05:28:39.217Z,1011.31
2019-02-19T05:29:39.256Z,1011.29
2019-02-19T05:30:39.188Z,1011.26
2019-02-19T05:31:39.205Z,1011.28
2019-02-19T05:32:39.170Z,1011.31
2019-02-19T05:33:39.156Z,1011.30
2019-02-19T05:34:39.207Z,1011.30
2019-02-19T05:35:39.144Z,1011.33
2019-02-19T05:36:39.124Z,1011.32
2019-02-19T05:37:39.119Z,1011.32
2019-02-19T05:38:39.116Z,1011.30
2019-02-19T05:39:39.102Z,1011.33
2019-02-19T05:40:39.163Z,1011.30
2019-02-19T05:41:39.076Z,1011.31
2019-02-19T05:42:39.072Z,1011.28
2019-02-19T05:43:39.050Z,1011.33
2019-02-19T05:44:39.100Z,1011.35
2019-02-19T05:45:39.050Z,1011.29
2019-02-19T05:46:39.032Z,1011.27
2019-02-19T05:47:39.080Z,1011.29
2019-02-19T05:48:39.023Z,1011.37
2019-02-19T05:49:38.985Z,1011.34
2019-02-19T05:50:39.019Z,1011.37
2019-02-19T05:51:38.967Z,1011.28
2019-02-19T05:52:38.985Z,1011.35
2019-02-19T05:53:38.940Z,1011.33
2019-02-19T05:54:38.948Z,1011.34
2019-02-19T05:55:38.921Z,1011.32
2019-02-19T05:56:38.987Z,1011.36
2019-02-19T05:57:38.896Z,1011.38
2019-02-19T05:58:38.938Z,1011.41
2019-02-19T05:59:38.876Z,1011.34
2019-02-19T06:00:38.869Z,1011.40
2019-02-19T06:01:38.902Z,1011.36
2019-02-19T06:02:38.855Z,1011.36
2019-02-19T06:03:38.853Z,1011.33
2019-02-19T06:04:38.827Z,1011.33
2019-02-19T06:05:38.812Z,1011.31
2019-02-19T06:06:38.835Z,1011.31
2019-02-19T06:07:38.794Z,1011.28
2019-02-19T06:08:38.794Z,1011.32
2019-02-19T06:09:38.775Z,1011.23
2019-02-19T06:10:38.782Z,1011.27
2019-02-19T06:11:38.796Z,1011.31
2019-02-19T06:12:38.758Z,1011.31
2019-02-19T06:13:38.733Z,1011.32
2019-02-19T06:14:38.729Z,1011.33
2019-02-19T06:15:38.714Z,1011.34
2019-02-19T06:16:38.753Z,1011.37
2019-02-19T06:17:38.939Z,1011.35
2019-02-19T06:18:38.677Z,1011.43
2019-02-19T06:19:38.675Z,1011.48
2019-02-19T06:20:38.657Z,1011.44
2019-02-19T06:21:38.692Z,1011.53
2019-02-19T06:22:38.653Z,1011.55
2019-02-19T06:23:38.626Z,1011.59
2019-02-19T06:24:38.630Z,1011.60
2019-02-19T06:25:38.618Z,1011.64
2019-02-19T06:26:38.592Z,1011.62
2019-02-19T06:27:38.617Z,1011.68
2019-02-19T06:28:38.571Z,1011.71
2019-02-19T06:29:38.572Z,1011.75
2019-02-19T06:30:38.562Z,1011.75
2019-02-19T06:31:38.541Z,1011.76
2019-02-19T06:32:38.576Z,1011.81
2019-02-19T06:33:38.521Z,1011.77
2019-02-19T06:34:38.537Z,1011.80
2019-02-19T06:35:38.498Z,1011.83
2019-02-19T06:36:38.491Z,1011.83
2019-02-19T06:37:38.540Z,1011.87
2019-02-19T06:38:38.497Z,1011.87
2019-02-19T06:39:38.462Z,1011.86
2019-02-19T06:40:38.448Z,1011.85
2019-02-19T06:41:38.448Z,1011.91
2019-02-19T06:42:38.426Z,1011.89
2019-02-19T06:43:38.453Z,1011.95
2019-02-19T06:44:38.430Z,1011.96
2019-02-19T06:45:38.395Z,1011.97
2019-02-19T06:46:38.389Z,1011.97
2019-02-19T06:47:38.390Z,1011.95
2019-02-19T06:48:38.389Z,1012.03
2019-02-19T06:49:38.356Z,1012.03
2019-02-19T06:50:38.342Z,1012.01
2019-02-19T06:51:38.337Z,1012.06
2019-02-19T06:52:38.335Z,1012.06
2019-02-19T06:53:38.332Z,1012.04
2019-02-19T06:54:38.298Z,1012.11
2019-02-19T06:55:38.287Z,1012.10
2019-02-19T06:56:38.287Z,1012.10
2019-02-19T06:57:38.281Z,1012.10
2019-02-19T06:58:38.281Z,1012.14
2019-02-19T06:59:38.245Z,1012.09
2019-02-19T07:00:38.242Z,1012.12
2019-02-19T07:01:38.227Z,1012.11
2019-02-19T07:02:38.211Z,1012.17
2019-02-19T07:03:38.240Z,1012.16
2019-02-19T07:04:38.196Z,1012.15
2019-02-19T07:05:38.192Z,1012.14
2019-02-19T07:06:38.175Z,1012.13
2019-02-19T07:07:38.179Z,1012.20
2019-02-19T07:08:38.152Z,1012.15
2019-02-19T07:09:38.202Z,1012.16
2019-02-19T07:10:38.129Z,1012.16
2019-02-19T07:11:38.123Z,1012.17
2019-02-19T07:12:38.104Z,1012.16
2019-02-19T07:13:38.098Z,1012.19
2019-02-19T07:14:38.112Z,1012.17
2019-02-19T07:15:38.073Z,1012.20
2019-02-19T07:16:38.063Z,1012.19
2019-02-19T07:17:38.085Z,1012.24
2019-02-19T07:18:38.037Z,1012.29
2019-02-19T07:19:38.064Z,1012.31
2019-02-19T07:20:38.030Z,1012.30
2019-02-19T07:21:38.008Z,1012.36
2019-02-19T07:22:37.995Z,1012.41
2019-02-19T07:23:37.988Z,1012.38
2019-02-19T07:24:37.976Z,1012.35
2019-02-19T07:25:38.008Z,1012.34
2019-02-19T07:26:37.992Z,1012.34
2019-02-19T07:27:37.954Z,1012.36
2019-02-19T07:28:37.933Z,1012.36
2019-02-19T07:29:37.919Z,1012.36
2019-02-19T07:30:37.961Z,1012.38
2019-02-19T07:31:37.899Z,1012.40
2019-02-19T07:32:37.891Z,1012.40
2019-02-19T07:33:37.889Z,1012.38
2019-02-19T07:34:37.868Z,1012.46
2019-02-19T07:35:37.875Z,1012.45
2019-02-19T07:36:37.841Z,1012.47
2019-02-19T07:37:37.830Z,1012.50
2019-02-19T07:38:37.818Z,1012.45
2019-02-19T07:39:37.815Z,1012.46
2019-02-19T07:40:37.849Z,1012.45
2019-02-19T07:41:37.788Z,1012.49
2019-02-19T07:42:37.779Z,1012.48
2019-02-19T07:43:37.781Z,1012.52
2019-02-19T07:44:37.763Z,1012.58
2019-02-19T07:45:37.779Z,1012.57
2019-02-19T07:46:37.743Z,1012.62
2019-02-19T07:47:37.723Z,1012.60
2019-02-19T07:48:37.719Z,1012.63
2019-02-19T07:49:37.702Z,1012.64
2019-02-19T07:50:37.723Z,1012.65
2019-02-19T07:51:37.684Z,1012.67
2019-02-19T07:52:37.682Z,1012.67
2019-02-19T07:53:37.672Z,1012.69
2019-02-19T07:54:37.644Z,1012.73
2019-02-19T07:55:37.635Z,1012.76
2019-02-19T07:56:37.654Z,1012.75
2019-02-19T07:57:37.617Z,1012.77
2019-02-19T07:58:37.601Z,1012.73
2019-02-19T07:59:37.592Z,1012.75
2019-02-19T08:00:37.609Z,1012.78
2019-02-19T08:01:37.571Z,1012.78
2019-02-19T08:02:37.560Z,1012.75
2019-02-19T08:03:37.581Z,1012.78
2019-02-19T08:04:37.540Z,1012.80
2019-02-19T08:05:37.527Z,1012.85
2019-02-19T08:06:37.562Z,1012.87
2019-02-19T08:07:37.508Z,1012.86
2019-02-19T08:08:37.495Z,1012.88
2019-02-19T08:09:37.481Z,1012.84
2019-02-19T08:10:37.470Z,1012.86
2019-02-19T08:11:37.522Z,1012.86
2019-02-19T08:12:37.446Z,1012.89
2019-02-19T08:13:37.443Z,1012.89
2019-02-19T08:14:37.429Z,1012.94
2019-02-19T08:15:37.432Z,1012.94
2019-02-19T08:16:37.433Z,1012.93
2019-02-19T08:17:37.401Z,1012.97
2019-02-19T08:18:37.380Z,1013.02
2019-02-19T08:19:37.380Z,1013.00
2019-02-19T08:20:37.366Z,1013.04
2019-02-19T08:21:37.376Z,1013.03
2019-02-19T08:22:37.337Z,1013.08
2019-02-19T08:23:37.331Z,1013.03
2019-02-19T08:24:37.321Z,1013.04
2019-02-19T08:25:37.308Z,1013.07
2019-02-19T08:26:37.345Z,1013.05
2019-02-19T08:27:37.284Z,1013.07
2019-02-19T08:28:37.278Z,1012.99
2019-02-19T08:29:37.277Z,1013.01
2019-02-19T08:30:37.281Z,1013.02
2019-02-19T08:31:37.242Z,1013.03
2019-02-19T08:32:37.233Z,1013.04
2019-02-19T08:33:37.219Z,1013.03
2019-02-19T08:34:37.209Z,1013.05
2019-02-19T08:35:37.197Z,1013.05
2019-02-19T08:36:37.212Z,1013.06
2019-02-19T08:37:37.179Z,1013.09
2019-02-19T08:38:37.192Z,1013.09
2019-02-19T08:39:37.155Z,1013.05
2019-02-19T08:40:37.197Z,1013.08
2019-02-19T08:41:37.169Z,1013.10
2019-02-19T08:42:37.129Z,1013.09
2019-02-19T08:43:37.127Z,1013.11
2019-02-19T08:44:37.105Z,1013.10
2019-02-19T08:45:37.093Z,1013.12
2019-02-19T08:46:37.130Z,1013.10
2019-02-19T08:47:42.600Z,1013.13
2019-02-19T08:48:38.066Z,1013.09
2019-02-19T08:49:37.052Z,1013.12
2019-02-19T08:50:37.045Z,1013.14
2019-02-19T08:51:37.038Z,1013.14
2019-02-19T08:52:37.049Z,1013.21
2019-02-19T08:53:37.014Z,1013.25
2019-02-19T08:54:36.997Z,1013.27
2019-02-19T08:55:36.993Z,1013.26
2019-02-19T08:56:36.981Z,1013.20
2019-02-19T08:57:36.997Z,1013.28
2019-02-19T08:58:36.959Z,1013.28
2019-02-19T08:59:36.952Z,1013.29
2019-02-19T09:00:38.533Z,1013.31
2019-02-19T09:01:36.938Z,1013.37
2019-02-19T09:02:36.931Z,1013.37
2019-02-19T09:03:36.902Z,1013.38
2019-02-19T09:04:36.890Z,1013.36
2019-02-19T09:05:36.874Z,1013.40
2019-02-19T09:06:36.879Z,1013.39
2019-02-19T09:07:36.855Z,1013.39
2019-02-19T09:08:36.868Z,1013.40
2019-02-19T09:09:36.830Z,1013.40
2019-02-19T09:10:36.824Z,1013.40
2019-02-19T09:11:36.825Z,1013.35
2019-02-19T09:12:36.803Z,1013.38
2019-02-19T09:13:36.817Z,1013.43
2019-02-19T09:14:36.806Z,1013.41
2019-02-19T09:15:36.776Z,1013.38
2019-02-19T09:16:36.769Z,1013.38
2019-02-19T09:17:36.771Z,1013.44
2019-02-19T09:18:36.773Z,1013.41
2019-02-19T09:19:36.734Z,1013.47
2019-02-19T09:20:36.922Z,1013.44
2019-02-19T09:21:36.712Z,1013.49
2019-02-19T09:22:36.721Z,1013.48
2019-02-19T09:23:36.720Z,1013.47
2019-02-19T09:24:36.703Z,1013.50
2019-02-19T09:25:36.657Z,1013.44
2019-02-19T09:26:36.645Z,1013.47
2019-02-19T09:27:36.648Z,1013.48
2019-02-19T09:28:36.661Z,1013.46
2019-02-19T09:29:36.623Z,1013.49
2019-02-19T09:30:36.606Z,1013.45
2019-02-19T09:31:36.607Z,1013.47
2019-02-19T09:32:36.583Z,1013.51
2019-02-19T09:33:36.594Z,1013.49
2019-02-19T09:34:36.571Z,1013.52
2019-02-19T09:35:36.552Z,1013.58
2019-02-19T09:36:36.541Z,1013.58
2019-02-19T09:37:36.539Z,1013.56
2019-02-19T09:38:36.561Z,1013.56
2019-02-19T09:39:36.513Z,1013.53
2019-02-19T09:40:36.506Z,1013.51
2019-02-19T09:41:36.492Z,1013.47
2019-02-19T09:42:36.490Z,1013.49
2019-02-19T09:43:36.496Z,1013.48
2019-02-19T09:44:36.452Z,1013.49
2019-02-19T09:45:36.459Z,1013.46
2019-02-19T09:46:36.432Z,1013.40
2019-02-19T09:47:36.456Z,1013.44
2019-02-19T09:48:36.410Z,1013.50
2019-02-19T09:49:36.449Z,1013.52
2019-02-19T09:50:36.436Z,1013.50
2019-02-19T09:51:36.378Z,1013.48
2019-02-19T09:52:36.371Z,1013.51
2019-02-19T09:53:36.411Z,1013.48
2019-02-19T09:54:36.370Z,1013.51
2019-02-19T09:55:36.337Z,1013.43
2019-02-19T09:56:36.343Z,1013.40
2019-02-19T09:57:36.312Z,1013.41
2019-02-19T09:58:36.304Z,1013.40
2019-02-19T09:59:36.297Z,1013.40
2019-02-19T10:00:36.311Z,1013.37
2019-02-19T10:01:36.272Z,1013.45
2019-02-19T10:02:36.293Z,1013.43
2019-02-19T10:03:36.250Z,1013.45
2019-02-19T10:04:36.239Z,1013.49
2019-02-19T10:05:36.365Z,1013.50
2019-02-19T10:06:37.538Z,1013.49
2019-02-19T10:07:36.335Z,1013.54
2019-02-19T10:08:36.219Z,1013.46
2019-02-19T10:09:36.202Z,1013.53
2019-02-19T10:10:36.222Z,1013.52
2019-02-19T10:11:36.160Z,1013.51
2019-02-19T10:12:36.150Z,1013.54
2019-02-19T10:13:36.141Z,1013.53
2019-02-19T10:14:36.132Z,1013.53
2019-02-19T10:15:36.403Z,1013.58
2019-02-19T10:16:41.603Z,1013.50
2019-02-19T10:17:37.098Z,1013.61
2019-02-19T10:18:36.089Z,1013.53
2019-02-19T10:19:36.075Z,1013.55
2019-02-19T10:20:36.086Z,1013.50
2019-02-19T10:21:36.063Z,1013.52
2019-02-19T10:22:36.056Z,1013.54
2019-02-19T10:23:36.050Z,1013.54
2019-02-19T10:24:36.055Z,1013.53
2019-02-19T10:25:36.057Z,1013.58
2019-02-19T10:26:36.007Z,1013.57
2019-02-19T10:27:36.014Z,1013.49
2019-02-19T10:28:35.987Z,1013.52
2019-02-19T10:29:35.971Z,1013.56
2019-02-19T10:30:35.969Z,1013.53
2019-02-19T10:31:35.972Z,1013.57
2019-02-19T10:32:35.936Z,1013.63
2019-02-19T10:33:35.935Z,1013.56
2019-02-19T10:34:35.968Z,1013.56
2019-02-19T10:35:35.908Z,1013.60
2019-02-19T10:36:35.919Z,1013.58
2019-02-19T10:37:35.902Z,1013.59
2019-02-19T10:38:35.866Z,1013.65
2019-02-19T10:39:35.860Z,1013.59
2019-02-19T10:40:35.857Z,1013.60
2019-02-19T10:41:35.878Z,1013.62
2019-02-19T10:42:35.841Z,1013.60
2019-02-19T10:43:35.813Z,1013.57
2019-02-19T10:44:35.827Z,1013.62
2019-02-19T10:45:35.792Z,1013.55
2019-02-19T10:46:35.785Z,1013.58
2019-02-19T10:47:35.976Z,1013.52
2019-02-19T10:48:35.759Z,1013.55
2019-02-19T10:49:35.754Z,1013.60
2019-02-19T10:50:35.739Z,1013.55
2019-02-19T10:51:35.730Z,1013.57
2019-02-19T10:52:35.748Z,1013.55
2019-02-19T10:53:35.716Z,1013.57
2019-02-19T10:54:35.729Z,1013.54
2019-02-19T10:55:35.687Z,1013.53
2019-02-19T10:56:35.676Z,1013.51
2019-02-19T10:57:35.770Z,1013.51
2019-02-19T10:58:35.658Z,1013.54
2019-02-19T10:59:35.647Z,1013.51
2019-02-19T11:00:35.656Z,1013.46
2019-02-19T11:01:35.644Z,1013.50
2019-02-19T11:02:35.643Z,1013.57
2019-02-19T11:03:35.629Z,1013.56
2019-02-19T11:04:35.622Z,1013.49
2019-02-19T11:05:35.593Z,1013.49
2019-02-19T11:06:35.570Z,1013.44
2019-02-19T11:07:35.560Z,1013.43
2019-02-19T11:08:35.608Z,1013.49
2019-02-19T11:09:35.579Z,1013.43
2019-02-19T11:10:35.551Z,1013.50
2019-02-19T11:11:35.517Z,1013.43
2019-02-19T11:12:35.525Z,1013.43
2019-02-19T11:13:35.531Z,1013.45
2019-02-19T11:14:35.509Z,1013.43
2019-02-19T11:15:35.629Z,1013.43
2019-02-19T11:16:35.481Z,1013.39
2019-02-19T11:17:35.501Z,1013.40
2019-02-19T11:18:35.534Z,1013.38
2019-02-19T11:19:35.430Z,1013.38
2019-02-19T11:20:38.153Z,1013.38
2019-02-19T11:21:35.413Z,1013.39
2019-02-19T11:22:35.414Z,1013.38
2019-02-19T11:23:35.416Z,1013.33
2019-02-19T11:24:35.405Z,1013.31
2019-02-19T11:25:35.364Z,1013.31
2019-02-19T11:26:35.355Z,1013.28
2019-02-19T11:27:35.340Z,1013.34
2019-02-19T11:28:35.336Z,1013.32
2019-02-19T11:29:35.358Z,1013.35
2019-02-19T11:30:35.337Z,1013.33
2019-02-19T11:31:35.327Z,1013.33
2019-02-19T11:32:35.296Z,1013.31
2019-02-19T11:33:35.306Z,1013.35
2019-02-19T11:34:35.307Z,1013.25
2019-02-19T11:35:35.385Z,1013.22
2019-02-19T11:36:35.248Z,1013.25
2019-02-19T11:37:35.258Z,1013.29
2019-02-19T11:38:35.245Z,1013.32
2019-02-19T11:39:35.248Z,1013.25
2019-02-19T11:40:35.229Z,1013.16
2019-02-19T11:41:35.200Z,1013.15
2019-02-19T11:42:35.198Z,1013.20
2019-02-19T11:43:35.182Z,1013.20
2019-02-19T11:44:35.226Z,1013.20
2019-02-19T11:45:35.154Z,1013.18
2019-02-19T11:46:35.165Z,1013.14
2019-02-19T11:47:35.134Z,1013.19
2019-02-19T11:48:37.178Z,1013.21
2019-02-19T11:49:35.129Z,1013.24
2019-02-19T11:50:35.104Z,1013.18
2019-02-19T11:51:35.076Z,1013.15
2019-02-19T11:52:35.074Z,1013.08
2019-02-19T11:53:35.054Z,1013.09
2019-02-19T11:54:35.073Z,1013.09
2019-02-19T11:55:35.038Z,1013.06
2019-02-19T11:56:35.071Z,1013.09
2019-02-19T11:57:35.022Z,1013.05
2019-02-19T11:58:35.004Z,1013.05
2019-02-19T11:59:35.017Z,1013.09
2019-02-19T12:00:34.980Z,1013.08
2019-02-19T12:01:34.966Z,1013.03
2019-02-19T12:02:34.993Z,1013.05
2019-02-19T12:03:34.986Z,1013.03
2019-02-19T12:04:34.965Z,1013.08
2019-02-19T12:05:34.929Z,1013.03